Time,TemperatureF,DewpointF,PressureIn,WindDirection,WindDirectionDegrees,WindSpeedMPH,WindSpeedGustMPH,Humidity,HourlyPrecipIn,Conditions,Clouds,dailyrainin,SoftwareType,DateUTC
2013-02-22 00:04:00,41.0,37.1,28.64,NW,315,0.0,0.0,86,0.00,CLR,CLR,0.00,WeatherDisplay:10.37,2013-02-22 06:04:00,
2013-02-22 00:09:00,41.0,37.1,28.64,NW,315,0.0,0.0,86,0.00,CLR,CLR,0.00,WeatherDisplay:10.37,2013-02-22 06:09:00,
2013-02-22 00:14:00,41.0,37.1,28.64,NW,315,0.0,0.0,86,0.00,CLR,CLR,0.00,WeatherDisplay:10.37,2013-02-22 06:14:00,
2013-02-22 00:19:00,40.8,37.3,28.64,NNW,338,3.5,3.5,87,0.00,CLR,CLR,0.00,WeatherDisplay:10.37,2013-02-22 06:19:00,
2013-02-22 00:24:00,40.8,37.3,28.64,NW,315,0.0,0.0,87,0.00,CLR,CLR,0.00,WeatherDisplay:10.37,2013-02-22 06:24:00,
2013-02-22 00:29:00,40.8,37.3,28.64,NW,315,5.4,0.0,87,0.00,CLR,CLR,0.00,WeatherDisplay:10.37,2013-02-22 06:29:00,
2013-02-22 00:34:00,40.8,37.3,28.64,NNW,338,2.6,0.0,87,0.00,CLR,CLR,0.00,WeatherDisplay:10.37,2013-02-22 06:34:00,
2013-02-22 00:39:00,40.6,37.1,28.64,NW,315,0.0,0.0,87,0.00,CLR,CLR,0.00,WeatherDisplay:10.37,2013-02-22 06:39:00,
2013-02-22 00:44:00,40.5,36.9,28.64,NW,315,5.8,5.8,87,0.00,CLR,CLR,0.00,WeatherDisplay:10.37,2013-02-22 06:44:00,
2013-02-22 00:49:00,40.5,36.9,28.64,NNW,338,0.0,0.0,87,0.00,CLR,CLR,0.00,WeatherDisplay:10.37,2013-02-22 06:49:00,
2013-02-22 00:54:00,40.3,36.7,28.64,NW,315,3.5,0.0,87,0.00,CLR,CLR,0.00,WeatherDisplay:10.37,2013-02-22 06:54:00,
2013-02-22 00:59:00,40.3,36.7,28.64,NW,315,3.6,0.0,87,0.00,CLR,CLR,0.00,WeatherDisplay:10.37,2013-02-22 06:59:00,
2013-02-22 01:04:00,39.9,36.1,28.64,NW,315,0.0,0.0,86,0.00,CLR,CLR,0.00,WeatherDisplay:10.37,2013-02-22 07:04:00,
2013-02-22 01:09:00,39.7,35.9,28.64,NNW,338,3.5,0.0,86,0.00,CLR,CLR,0.00,WeatherDisplay:10.37,2013-02-22 07:09:00,
2013-02-22 01:14:00,39.4,35.5,28.64,NNW,338,4.6,4.6,86,0.00,CLR,CLR,0.00,WeatherDisplay:10.37,2013-02-22 07:14:00,
2013-02-22 01:19:00,39.0,35.5,28.64,NNW,338,3.5,3.5,87,0.00,CLR,CLR,0.00,WeatherDisplay:10.37,2013-02-22 07:19:00,
2013-02-22 01:24:00,38.7,35.1,28.64,NW,315,3.6,0.0,87,0.00,CLR,CLR,0.00,WeatherDisplay:10.37,2013-02-22 07:24:00,
2013-02-22 01:29:00,38.5,34.7,28.64,NW,315,0.0,0.0,86,0.00,CLR,CLR,0.00,WeatherDisplay:10.37,2013-02-22 07:29:00,
2013-02-22 01:34:00,38.3,34.5,28.64,NW,315,0.0,0.0,86,0.00,CLR,CLR,0.00,WeatherDisplay:10.37,2013-02-22 07:34:00,
2013-02-22 01:39:00,37.9,34.1,28.64,NW,315,0.0,0.0,86,0.00,CLR,CLR,0.00,WeatherDisplay:10.37,2013-02-22 07:39:00,
2013-02-22 01:44:00,37.8,33.9,28.64,NW,315,0.0,0.0,86,0.00,CLR,CLR,0.00,WeatherDisplay:10.37,2013-02-22 07:44:00,
2013-02-22 01:49:00,37.6,33.8,28.64,NW,315,0.0,0.0,86,0.00,CLR,CLR,0.00,WeatherDisplay:10.37,2013-02-22 07:49:00,
2013-02-22 01:54:00,37.4,33.6,28.64,WNW,292,4.9,0.0,86,0.00,CLR,CLR,0.00,WeatherDisplay:10.37,2013-02-22 07:54:00,
2013-02-22 01:59:00,37.0,33.2,28.64,NW,315,0.0,0.0,86,0.00,CLR,CLR,0.00,WeatherDisplay:10.37,2013-02-22 07:59:00,
2013-02-22 02:04:00,36.9,33.1,28.64,NNW,338,3.6,0.0,86,0.00,CLR,CLR,0.00,WeatherDisplay:10.37,2013-02-22 08:04:00,
2013-02-22 02:09:00,36.7,32.9,28.64,NW,315,3.5,0.0,86,0.00,CLR,CLR,0.00,WeatherDisplay:10.37,2013-02-22 08:09:00,
2013-02-22 02:14:00,36.7,32.9,28.64,NW,315,2.6,0.0,86,0.00,CLR,CLR,0.00,WeatherDisplay:10.37,2013-02-22 08:14:00,
2013-02-22 02:19:00,36.3,32.5,28.64,NW,315,2.6,0.0,86,0.00,CLR,CLR,0.00,WeatherDisplay:10.37,2013-02-22 08:19:00,
2013-02-22 02:24:00,36.3,32.5,28.64,NW,315,0.0,0.0,86,0.00,CLR,CLR,0.00,WeatherDisplay:10.37,2013-02-22 08:24:00,
2013-02-22 02:29:00,36.1,32.4,28.64,NW,315,3.1,0.0,86,0.00,CLR,CLR,0.00,WeatherDisplay:10.37,2013-02-22 08:29:00,
2013-02-22 02:34:00,36.0,32.2,28.64,NW,315,0.0,0.0,86,0.00,CLR,CLR,0.00,WeatherDisplay:10.37,2013-02-22 08:34:00,
2013-02-22 02:39:00,35.8,32.0,28.64,NW,315,4.6,0.0,86,0.00,CLR,CLR,0.00,WeatherDisplay:10.37,2013-02-22 08:39:00,
2013-02-22 02:44:00,35.8,32.0,28.64,NW,315,4.6,0.0,86,0.00,CLR,CLR,0.00,WeatherDisplay:10.37,2013-02-22 08:44:00,
2013-02-22 02:49:00,35.6,31.8,28.64,NW,315,0.0,0.0,86,0.00,CLR,CLR,0.00,WeatherDisplay:10.37,2013-02-22 08:49:00,
2013-02-22 02:54:00,35.6,31.8,28.64,NW,315,6.2,6.2,86,0.00,CLR,CLR,0.00,WeatherDisplay:10.37,2013-02-22 08:54:00,
2013-02-22 02:59:00,35.4,31.6,28.64,WNW,292,4.0,0.0,86,0.00,CLR,CLR,0.00,WeatherDisplay:10.37,2013-02-22 08:59:00,
2013-02-22 03:04:00,35.4,31.6,28.64,NW,315,2.3,0.0,86,0.00,CLR,CLR,0.00,WeatherDisplay:10.37,2013-02-22 09:04:00,
2013-02-22 03:10:00,35.2,31.5,28.64,NNW,338,5.9,0.0,86,0.00,CLR,CLR,0.00,WeatherDisplay:10.37,2013-02-22 09:10:00,
2013-02-22 03:15:00,35.2,31.5,28.64,NW,315,4.6,0.0,86,0.00,CLR,CLR,0.00,WeatherDisplay:10.37,2013-02-22 09:15:00,
2013-02-22 03:20:00,35.2,31.5,28.64,NW,315,3.5,3.5,86,0.00,CLR,CLR,0.00,WeatherDisplay:10.37,2013-02-22 09:20:00,
2013-02-22 03:25:00,35.2,31.5,28.64,WNW,292,3.6,0.0,86,0.00,CLR,CLR,0.00,WeatherDisplay:10.37,2013-02-22 09:25:00,
2013-02-22 03:30:00,35.1,31.3,28.64,WNW,292,4.6,4.6,86,0.00,CLR,CLR,0.00,WeatherDisplay:10.37,2013-02-22 09:30:00,
2013-02-22 03:35:00,35.1,31.3,28.64,WNW,292,4.0,0.0,86,0.00,CLR,CLR,0.00,WeatherDisplay:10.37,2013-02-22 09:35:00,
2013-02-22 03:40:00,35.1,31.3,28.64,NW,315,3.5,0.0,86,0.00,CLR,CLR,0.00,WeatherDisplay:10.37,2013-02-22 09:40:00,
2013-02-22 03:45:00,34.9,31.1,28.64,NW,315,3.5,0.0,86,0.00,CLR,CLR,0.00,WeatherDisplay:10.37,2013-02-22 09:45:00,
2013-02-22 03:50:00,34.9,31.1,28.64,WNW,292,3.5,0.0,86,0.00,CLR,CLR,0.00,WeatherDisplay:10.37,2013-02-22 09:50:00,
2013-02-22 03:55:00,34.7,30.9,28.64,WNW,292,4.0,0.0,86,0.00,CLR,CLR,0.00,WeatherDisplay:10.37,2013-02-22 09:55:00,
2013-02-22 04:00:00,34.5,30.8,28.64,NW,315,0.0,0.0,86,0.00,CLR,CLR,0.00,WeatherDisplay:10.37,2013-02-22 10:00:00,
2013-02-22 04:05:00,34.5,30.5,28.64,NW,315,3.6,0.0,85,0.00,CLR,CLR,0.00,WeatherDisplay:10.37,2013-02-22 10:05:00,
2013-02-22 04:10:00,34.5,30.5,28.64,NNW,338,4.6,4.6,85,0.00,CLR,CLR,0.00,WeatherDisplay:10.37,2013-02-22 10:10:00,
2013-02-22 04:15:00,34.5,30.5,28.64,NNW,338,0.0,0.0,85,0.00,CLR,CLR,0.00,WeatherDisplay:10.37,2013-02-22 10:15:00,
2013-02-22 04:20:00,34.5,30.5,28.64,WNW,292,4.0,0.0,85,0.00,CLR,CLR,0.00,WeatherDisplay:10.37,2013-02-22 10:20:00,
2013-02-22 04:25:00,34.5,30.5,28.64,NW,315,4.6,4.6,85,0.00,CLR,CLR,0.00,WeatherDisplay:10.37,2013-02-22 10:25:00,
2013-02-22 04:30:00,34.3,30.3,28.64,NW,315,4.6,4.6,85,0.00,CLR,CLR,0.00,WeatherDisplay:10.37,2013-02-22 10:30:00,
2013-02-22 04:35:00,34.3,30.3,28.64,NW,315,3.6,0.0,85,0.00,CLR,CLR,0.00,WeatherDisplay:10.37,2013-02-22 10:35:00,
2013-02-22 04:40:00,34.3,30.3,28.64,NW,315,0.0,0.0,85,0.00,CLR,CLR,0.00,WeatherDisplay:10.37,2013-02-22 10:40:00,
2013-02-22 04:45:00,34.3,30.3,28.64,WNW,292,0.0,0.0,85,0.00,CLR,CLR,0.00,WeatherDisplay:10.37,2013-02-22 10:45:00,
2013-02-22 04:50:00,34.3,30.3,28.64,NW,315,3.5,0.0,85,0.00,CLR,CLR,0.00,WeatherDisplay:10.37,2013-02-22 10:50:00,
2013-02-22 04:55:00,34.3,30.3,28.64,WNW,292,0.0,0.0,85,0.00,CLR,CLR,0.00,WeatherDisplay:10.37,2013-02-22 10:55:00,
2013-02-22 05:00:00,34.2,30.1,28.67,NW,315,4.0,0.0,85,0.00,CLR,CLR,0.00,WeatherDisplay:10.37,2013-02-22 11:00:00,
2013-02-22 05:05:00,34.0,29.9,28.67,NW,315,0.0,0.0,85,0.00,CLR,CLR,0.00,WeatherDisplay:10.37,2013-02-22 11:05:00,
2013-02-22 05:10:00,33.8,29.8,28.67,WNW,292,0.0,0.0,85,0.00,CLR,CLR,0.00,WeatherDisplay:10.37,2013-02-22 11:10:00,
2013-02-22 05:15:00,33.6,29.6,28.67,West,270,0.0,0.0,85,0.00,CLR,CLR,0.00,WeatherDisplay:10.37,2013-02-22 11:15:00,
2013-02-22 05:20:00,33.3,29.2,28.67,West,270,2.6,0.0,85,0.00,CLR,CLR,0.00,WeatherDisplay:10.37,2013-02-22 11:20:00,
2013-02-22 05:25:00,32.7,28.4,28.67,WNW,292,0.0,0.0,84,0.00,CLR,CLR,0.00,WeatherDisplay:10.37,2013-02-22 11:25:00,
2013-02-22 05:30:00,32.2,27.9,28.67,NW,315,0.0,0.0,84,0.00,CLR,CLR,0.00,WeatherDisplay:10.37,2013-02-22 11:30:00,
2013-02-22 05:35:00,31.8,27.2,28.67,WNW,292,0.0,0.0,83,0.00,CLR,CLR,0.00,WeatherDisplay:10.37,2013-02-22 11:35:00,
2013-02-22 05:40:00,31.3,26.7,28.67,WNW,292,0.0,0.0,83,0.00,CLR,CLR,0.00,WeatherDisplay:10.37,2013-02-22 11:40:00,
2013-02-22 05:45:00,30.7,25.9,28.67,WNW,292,3.5,0.0,82,0.00,CLR,CLR,0.00,WeatherDisplay:10.37,2013-02-22 11:45:00,
2013-02-22 05:50:00,30.2,25.4,28.67,WNW,292,0.0,0.0,82,0.00,CLR,CLR,0.00,WeatherDisplay:10.37,2013-02-22 11:50:00,
2013-02-22 05:55:00,29.8,25.0,28.67,West,270,3.6,0.0,82,0.00,CLR,CLR,0.00,WeatherDisplay:10.37,2013-02-22 11:55:00,
2013-02-22 06:00:00,29.3,24.5,28.67,West,270,0.0,0.0,82,0.00,CLR,CLR,0.00,WeatherDisplay:10.37,2013-02-22 12:00:00,
2013-02-22 06:05:00,28.8,23.7,28.67,West,270,2.3,0.0,81,0.00,CLR,CLR,0.00,WeatherDisplay:10.37,2013-02-22 12:05:00,
2013-02-22 06:10:00,28.4,23.3,28.67,WNW,292,0.0,0.0,81,0.00,CLR,CLR,0.00,WeatherDisplay:10.37,2013-02-22 12:10:00,
2013-02-22 06:15:00,27.9,22.8,28.67,WNW,292,0.0,0.0,81,0.00,CLR,CLR,0.00,WeatherDisplay:10.37,2013-02-22 12:15:00,
2013-02-22 06:20:00,27.1,22.1,28.67,WNW,292,0.0,0.0,81,0.00,CLR,CLR,0.00,WeatherDisplay:10.37,2013-02-22 12:20:00,
2013-02-22 06:25:00,26.8,21.4,28.67,WNW,292,0.0,0.0,80,0.00,CLR,CLR,0.00,WeatherDisplay:10.37,2013-02-22 12:25:00,
2013-02-22 06:30:00,26.4,21.4,28.67,West,270,0.0,0.0,81,0.00,CLR,CLR,0.00,WeatherDisplay:10.37,2013-02-22 12:30:00,
2013-02-22 06:35:00,25.9,20.6,28.67,SW,225,0.0,0.0,80,0.00,CLR,CLR,0.00,WeatherDisplay:10.37,2013-02-22 12:35:00,
2013-02-22 06:40:00,25.3,20.0,28.67,West,270,0.0,0.0,80,0.00,CLR,CLR,0.00,WeatherDisplay:10.37,2013-02-22 12:40:00,
2013-02-22 06:45:00,24.6,19.3,28.67,West,270,0.0,0.0,80,0.00,CLR,CLR,0.00,WeatherDisplay:10.37,2013-02-22 12:45:00,
2013-02-22 06:50:00,24.3,19.0,28.67,West,270,2.6,0.0,80,0.00,CLR,CLR,0.00,WeatherDisplay:10.37,2013-02-22 12:50:00,
2013-02-22 06:55:00,23.7,18.5,28.67,West,270,0.0,0.0,80,0.00,CLR,CLR,0.00,WeatherDisplay:10.37,2013-02-22 12:55:00,
2013-02-22 07:01:00,23.2,17.9,28.67,WNW,292,0.0,0.0,80,0.00,CLR,CLR,0.00,WeatherDisplay:10.37,2013-02-22 13:01:00,
2013-02-22 07:06:00,22.8,17.6,28.67,West,270,0.0,0.0,80,0.00,CLR,CLR,0.00,WeatherDisplay:10.37,2013-02-22 13:06:00,
2013-02-22 07:11:00,22.6,17.4,28.67,WNW,292,0.0,0.0,80,0.00,CLR,CLR,0.00,WeatherDisplay:10.37,2013-02-22 13:11:00,
2013-02-22 07:16:00,22.5,17.2,28.70,West,270,0.0,0.0,80,0.00,CLR,CLR,0.00,WeatherDisplay:10.37,2013-02-22 13:16:00,
2013-02-22 07:21:00,22.1,16.9,28.70,West,270,0.0,0.0,80,0.00,CLR,CLR,0.00,WeatherDisplay:10.37,2013-02-22 13:21:00,
2013-02-22 07:26:00,21.9,16.7,28.70,SW,225,2.2,0.0,80,0.00,CLR,CLR,0.00,WeatherDisplay:10.37,2013-02-22 13:26:00,
2013-02-22 07:31:00,21.7,16.5,28.70,SW,225,0.0,0.0,80,0.00,CLR,CLR,0.00,WeatherDisplay:10.37,2013-02-22 13:31:00,
2013-02-22 07:36:00,21.6,16.3,28.70,WSW,248,0.0,0.0,80,0.00,CLR,CLR,0.00,WeatherDisplay:10.37,2013-02-22 13:36:00,
2013-02-22 07:41:00,21.4,16.2,28.70,WSW,248,0.0,0.0,80,0.00,CLR,CLR,0.00,WeatherDisplay:10.37,2013-02-22 13:41:00,
2013-02-22 07:46:00,21.4,16.2,28.70,SW,225,5.4,0.0,80,0.00,CLR,CLR,0.00,WeatherDisplay:10.37,2013-02-22 13:46:00,
2013-02-22 07:51:00,21.2,16.0,28.70,SW,225,0.0,0.0,80,0.00,CLR,CLR,0.00,WeatherDisplay:10.37,2013-02-22 13:51:00,
2013-02-22 07:56:00,20.7,15.5,28.70,West,270,2.3,0.0,80,0.00,CLR,CLR,0.00,WeatherDisplay:10.37,2013-02-22 13:56:00,
2013-02-22 08:01:00,20.5,15.0,28.70,West,270,0.0,0.0,79,0.00,CLR,CLR,0.00,WeatherDisplay:10.37,2013-02-22 14:01:00,
2013-02-22 08:06:00,20.5,15.0,28.70,SW,225,0.0,0.0,79,0.00,CLR,CLR,0.00,WeatherDisplay:10.37,2013-02-22 14:06:00,
2013-02-22 08:11:00,20.3,14.8,28.70,SW,225,0.0,0.0,79,0.00,CLR,CLR,0.00,WeatherDisplay:10.37,2013-02-22 14:11:00,
2013-02-22 08:16:00,20.3,14.5,28.73,SW,225,2.6,0.0,78,0.00,CLR,CLR,0.00,WeatherDisplay:10.37,2013-02-22 14:16:00,
2013-02-22 08:21:00,19.9,14.2,28.73,SW,225,0.0,0.0,78,0.00,CLR,CLR,0.00,WeatherDisplay:10.37,2013-02-22 14:21:00,
2013-02-22 08:26:00,19.8,13.7,28.73,SW,225,5.8,5.8,77,0.00,CLR,CLR,0.00,WeatherDisplay:10.37,2013-02-22 14:26:00,
2013-02-22 08:31:00,18.9,12.8,28.73,SSW,202,6.2,6.2,77,0.00,CLR,CLR,0.00,WeatherDisplay:10.37,2013-02-22 14:31:00,
2013-02-22 08:36:00,17.8,11.2,28.73,SW,225,5.8,5.8,75,0.00,CLR,CLR,0.00,WeatherDisplay:10.37,2013-02-22 14:36:00,
2013-02-22 08:41:00,17.8,10.9,28.73,SW,225,5.8,0.0,74,0.00,CLR,CLR,0.00,WeatherDisplay:10.37,2013-02-22 14:41:00,
2013-02-22 08:46:00,17.2,10.4,28.76,SW,225,5.9,0.0,74,0.00,CLR,CLR,0.00,WeatherDisplay:10.37,2013-02-22 14:46:00,
2013-02-22 08:51:00,17.6,10.4,28.76,West,270,3.6,0.0,73,0.00,CLR,CLR,0.00,WeatherDisplay:10.37,2013-02-22 14:51:00,
2013-02-22 08:56:00,18.1,10.6,28.76,WNW,292,6.2,0.0,72,0.00,CLR,CLR,0.00,WeatherDisplay:10.37,2013-02-22 14:56:00,
2013-02-22 09:01:00,18.1,10.6,28.73,West,270,3.6,0.0,72,0.00,CLR,CLR,0.00,WeatherDisplay:10.37,2013-02-22 15:01:00,
2013-02-22 09:06:00,18.3,10.5,28.73,West,270,4.6,4.6,71,0.00,CLR,CLR,0.00,WeatherDisplay:10.37,2013-02-22 15:06:00,
2013-02-22 09:11:00,18.7,10.8,28.73,WNW,292,3.1,0.0,71,0.00,CLR,CLR,0.00,WeatherDisplay:10.37,2013-02-22 15:11:00,
2013-02-22 09:16:00,19.0,10.9,28.73,WSW,248,0.0,0.0,70,0.00,CLR,CLR,0.00,WeatherDisplay:10.37,2013-02-22 15:16:00,
2013-02-22 09:21:00,19.4,11.2,28.73,WNW,292,3.5,0.0,70,0.00,CLR,CLR,0.00,WeatherDisplay:10.37,2013-02-22 15:21:00,
2013-02-22 09:26:00,19.0,10.5,28.73,WNW,292,7.6,7.6,69,0.00,CLR,CLR,0.00,WeatherDisplay:10.37,2013-02-22 15:26:00,
2013-02-22 09:31:00,18.5,9.7,28.73,NW,315,3.6,0.0,68,0.00,CLR,CLR,0.00,WeatherDisplay:10.37,2013-02-22 15:31:00,
2013-02-22 09:36:00,18.9,9.7,28.73,West,270,3.6,0.0,67,0.00,CLR,CLR,0.00,WeatherDisplay:10.37,2013-02-22 15:36:00,
2013-02-22 09:41:00,19.6,10.4,28.73,WNW,292,2.3,0.0,67,0.00,CLR,CLR,0.00,WeatherDisplay:10.37,2013-02-22 15:41:00,
2013-02-22 09:46:00,19.8,10.6,28.76,NW,315,7.6,0.0,67,0.00,CLR,CLR,0.00,WeatherDisplay:10.37,2013-02-22 15:46:00,
2013-02-22 09:51:00,19.8,10.6,28.76,West,270,4.6,0.0,67,0.00,CLR,CLR,0.00,WeatherDisplay:10.37,2013-02-22 15:51:00,
2013-02-22 09:56:00,19.8,10.2,28.76,West,270,6.2,6.2,66,0.00,CLR,CLR,0.00,WeatherDisplay:10.37,2013-02-22 15:56:00,
2013-02-22 10:01:00,19.9,10.1,28.76,WNW,292,4.6,0.0,65,0.00,CLR,CLR,0.00,WeatherDisplay:10.37,2013-02-22 16:01:00,
2013-02-22 10:06:00,20.3,10.4,28.76,West,270,2.6,0.0,65,0.00,CLR,CLR,0.00,WeatherDisplay:10.37,2013-02-22 16:06:00,
2013-02-22 10:11:00,20.5,10.2,28.76,WSW,248,0.0,0.0,64,0.00,CLR,CLR,0.00,WeatherDisplay:10.37,2013-02-22 16:11:00,
2013-02-22 10:16:00,20.8,10.6,28.76,WNW,292,0.0,0.0,64,0.00,CLR,CLR,0.00,WeatherDisplay:10.37,2013-02-22 16:16:00,
2013-02-22 10:21:00,21.6,11.3,28.76,West,270,5.9,0.0,64,0.00,CLR,CLR,0.00,WeatherDisplay:10.37,2013-02-22 16:21:00,
2013-02-22 10:26:00,20.8,9.9,28.76,WSW,248,3.6,3.6,62,0.00,CLR,CLR,0.00,WeatherDisplay:10.37,2013-02-22 16:26:00,
2013-02-22 10:31:00,21.0,10.0,28.76,West,270,3.6,0.0,62,0.00,CLR,CLR,0.00,WeatherDisplay:10.37,2013-02-22 16:31:00,
2013-02-22 10:36:00,21.2,10.2,28.76,WNW,292,7.1,7.1,62,0.00,CLR,CLR,0.00,WeatherDisplay:10.37,2013-02-22 16:36:00,
2013-02-22 10:41:00,21.4,10.0,28.76,West,270,4.6,0.0,61,0.00,CLR,CLR,0.00,WeatherDisplay:10.37,2013-02-22 16:41:00,
2013-02-22 10:46:00,21.4,9.6,28.79,WSW,248,6.2,6.2,60,0.00,CLR,CLR,0.00,WeatherDisplay:10.37,2013-02-22 16:46:00,
2013-02-22 10:51:00,21.0,8.9,28.79,WNW,292,4.6,4.6,59,0.00,CLR,CLR,0.00,WeatherDisplay:10.37,2013-02-22 16:51:00,
2013-02-22 10:56:00,21.4,9.3,28.79,WSW,248,0.0,0.0,59,0.00,CLR,CLR,0.00,WeatherDisplay:10.37,2013-02-22 16:56:00,
2013-02-22 11:01:00,21.7,9.2,28.79,West,270,5.4,0.0,58,0.00,CLR,CLR,0.00,WeatherDisplay:10.37,2013-02-22 17:01:00,
2013-02-22 11:06:00,21.7,9.2,28.79,West,270,0.0,0.0,58,0.00,CLR,CLR,0.00,WeatherDisplay:10.37,2013-02-22 17:06:00,
2013-02-22 11:11:00,21.9,9.0,28.79,NW,315,4.0,4.0,57,0.00,CLR,CLR,0.00,WeatherDisplay:10.37,2013-02-22 17:11:00,
2013-02-22 11:16:00,21.6,8.3,28.82,West,270,2.6,2.6,56,0.00,CLR,CLR,0.00,WeatherDisplay:10.37,2013-02-22 17:16:00,
2013-02-22 11:21:00,21.4,8.1,28.82,SW,225,9.2,9.2,56,0.00,CLR,CLR,0.00,WeatherDisplay:10.37,2013-02-22 17:21:00,
2013-02-22 11:26:00,21.7,8.0,28.82,SW,225,9.2,9.2,55,0.00,CLR,CLR,0.00,WeatherDisplay:10.37,2013-02-22 17:26:00,
2013-02-22 11:31:00,21.7,8.0,28.79,WNW,292,4.6,0.0,55,0.00,CLR,CLR,0.00,WeatherDisplay:10.37,2013-02-22 17:31:00,
2013-02-22 11:36:00,21.9,8.2,28.79,WSW,248,4.6,0.0,55,0.00,CLR,CLR,0.00,WeatherDisplay:10.37,2013-02-22 17:36:00,
2013-02-22 11:41:00,21.9,8.2,28.79,SSW,202,10.4,0.0,55,0.00,CLR,CLR,0.00,WeatherDisplay:10.37,2013-02-22 17:41:00,
2013-02-22 11:46:00,21.7,8.0,28.82,West,270,2.6,0.0,55,0.00,CLR,CLR,0.00,WeatherDisplay:10.37,2013-02-22 17:46:00,
2013-02-22 11:51:00,21.7,8.0,28.82,SSW,202,8.3,8.3,55,0.00,CLR,CLR,0.00,WeatherDisplay:10.37,2013-02-22 17:51:00,
2013-02-22 11:56:00,21.2,7.5,28.82,WSW,248,10.4,10.4,55,0.00,CLR,CLR,0.00,WeatherDisplay:10.37,2013-02-22 17:56:00,
2013-02-22 12:01:00,21.7,8.0,28.82,SW,225,4.9,4.9,55,0.00,CLR,CLR,0.00,WeatherDisplay:10.37,2013-02-22 18:01:00,
2013-02-22 12:06:00,21.7,8.0,28.82,WSW,248,9.7,0.0,55,0.00,CLR,CLR,0.00,WeatherDisplay:10.37,2013-02-22 18:06:00,
2013-02-22 12:11:00,22.1,8.0,28.82,WSW,248,2.6,0.0,54,0.00,CLR,CLR,0.00,WeatherDisplay:10.37,2013-02-22 18:11:00,
2013-02-22 12:16:00,22.3,8.1,28.82,WSW,248,5.4,0.0,54,0.00,CLR,CLR,0.00,WeatherDisplay:10.37,2013-02-22 18:16:00,
2013-02-22 12:21:00,22.5,8.3,28.82,SW,225,3.5,0.0,54,0.00,CLR,CLR,0.00,WeatherDisplay:10.37,2013-02-22 18:21:00,
2013-02-22 12:26:00,22.3,8.1,28.82,West,270,0.0,0.0,54,0.00,CLR,CLR,0.00,WeatherDisplay:10.37,2013-02-22 18:26:00,
2013-02-22 12:31:00,22.5,8.3,28.82,SW,225,0.0,0.0,54,0.00,CLR,CLR,0.00,WeatherDisplay:10.37,2013-02-22 18:31:00,
2013-02-22 12:36:00,23.4,9.1,28.82,West,270,2.6,0.0,54,0.00,CLR,CLR,0.00,WeatherDisplay:10.37,2013-02-22 18:36:00,
2013-02-22 12:41:00,22.8,8.2,28.82,SW,225,0.0,0.0,53,0.00,CLR,CLR,0.00,WeatherDisplay:10.37,2013-02-22 18:41:00,
2013-02-22 12:46:00,23.0,8.4,28.82,WNW,292,3.5,0.0,53,0.00,CLR,CLR,0.00,WeatherDisplay:10.37,2013-02-22 18:46:00,
2013-02-22 12:51:00,23.4,8.7,28.82,WNW,292,2.3,0.0,53,0.00,CLR,CLR,0.00,WeatherDisplay:10.37,2013-02-22 18:51:00,
2013-02-22 12:56:00,23.5,8.9,28.82,WSW,248,0.0,0.0,53,0.00,CLR,CLR,0.00,WeatherDisplay:10.37,2013-02-22 18:56:00,
2013-02-22 13:01:00,24.1,9.4,28.79,West,270,3.6,0.0,53,0.00,CLR,CLR,0.00,WeatherDisplay:10.37,2013-02-22 19:01:00,
2013-02-22 13:06:00,23.0,8.4,28.79,SW,225,3.1,0.0,53,0.00,CLR,CLR,0.00,WeatherDisplay:10.37,2013-02-22 19:06:00,
2013-02-22 13:11:00,23.2,8.1,28.79,WNW,292,4.9,0.0,52,0.00,CLR,CLR,0.00,WeatherDisplay:10.37,2013-02-22 19:11:00,
2013-02-22 13:17:00,23.0,8.4,28.82,WNW,292,8.3,0.0,53,0.00,CLR,CLR,0.00,WeatherDisplay:10.37,2013-02-22 19:17:00,
2013-02-22 13:22:00,22.8,8.2,28.82,West,270,2.6,0.0,53,0.00,CLR,CLR,0.00,WeatherDisplay:10.37,2013-02-22 19:22:00,
2013-02-22 13:27:00,22.6,8.1,28.82,West,270,2.6,0.0,53,0.00,CLR,CLR,0.00,WeatherDisplay:10.37,2013-02-22 19:27:00,
2013-02-22 13:32:00,22.3,7.3,28.79,WNW,292,3.1,0.0,52,0.00,CLR,CLR,0.00,WeatherDisplay:10.37,2013-02-22 19:32:00,
2013-02-22 13:37:00,22.8,8.2,28.79,NW,315,7.6,0.0,53,0.00,CLR,CLR,0.00,WeatherDisplay:10.37,2013-02-22 19:37:00,
2013-02-22 13:42:00,22.8,8.2,28.79,West,270,2.3,0.0,53,0.00,CLR,CLR,0.00,WeatherDisplay:10.37,2013-02-22 19:42:00,
2013-02-22 13:47:00,23.0,8.4,28.79,WSW,248,3.5,0.0,53,0.00,CLR,CLR,0.00,WeatherDisplay:10.37,2013-02-22 19:47:00,
2013-02-22 13:52:00,23.0,8.4,28.79,West,270,3.5,3.5,53,0.00,CLR,CLR,0.00,WeatherDisplay:10.37,2013-02-22 19:52:00,
2013-02-22 13:57:00,22.8,8.2,28.79,WSW,248,0.0,0.0,53,0.00,CLR,CLR,0.00,WeatherDisplay:10.37,2013-02-22 19:57:00,
2013-02-22 14:02:00,22.6,7.6,28.79,West,270,7.6,0.0,52,0.00,CLR,CLR,0.00,WeatherDisplay:10.37,2013-02-22 20:02:00,
2013-02-22 14:07:00,22.6,8.1,28.79,West,270,3.6,0.0,53,0.00,CLR,CLR,0.00,WeatherDisplay:10.37,2013-02-22 20:07:00,
2013-02-22 14:12:00,22.5,7.9,28.79,NW,315,0.0,0.0,53,0.00,CLR,CLR,0.00,WeatherDisplay:10.37,2013-02-22 20:12:00,
2013-02-22 14:17:00,22.6,8.1,28.79,WSW,248,0.0,0.0,53,0.00,CLR,CLR,0.00,WeatherDisplay:10.37,2013-02-22 20:17:00,
2013-02-22 14:22:00,21.9,7.4,28.79,West,270,3.5,3.5,53,0.00,CLR,CLR,0.00,WeatherDisplay:10.37,2013-02-22 20:22:00,
2013-02-22 14:27:00,22.8,8.2,28.79,NW,315,2.6,0.0,53,0.00,CLR,CLR,0.00,WeatherDisplay:10.37,2013-02-22 20:27:00,
2013-02-22 14:32:00,23.0,8.4,28.79,WNW,292,0.0,0.0,53,0.00,CLR,CLR,0.00,WeatherDisplay:10.37,2013-02-22 20:32:00,
2013-02-22 14:37:00,22.3,7.3,28.79,West,270,0.0,0.0,52,0.00,CLR,CLR,0.00,WeatherDisplay:10.37,2013-02-22 20:37:00,
2013-02-22 14:42:00,22.3,7.3,28.79,West,270,2.3,0.0,52,0.00,CLR,CLR,0.00,WeatherDisplay:10.37,2013-02-22 20:42:00,
2013-02-22 14:47:00,22.1,7.1,28.79,WNW,292,3.6,0.0,52,0.00,CLR,CLR,0.00,WeatherDisplay:10.37,2013-02-22 20:47:00,
2013-02-22 14:52:00,22.3,7.7,28.79,WNW,292,0.0,0.0,53,0.00,CLR,CLR,0.00,WeatherDisplay:10.37,2013-02-22 20:52:00,
2013-02-22 14:57:00,22.3,7.7,28.79,WSW,248,2.6,0.0,53,0.00,CLR,CLR,0.00,WeatherDisplay:10.37,2013-02-22 20:57:00,
2013-02-22 15:02:00,22.8,8.2,28.79,WSW,248,0.0,0.0,53,0.00,CLR,CLR,0.00,WeatherDisplay:10.37,2013-02-22 21:02:00,
2013-02-22 15:07:00,22.5,7.5,28.79,West,270,0.0,0.0,52,0.00,CLR,CLR,0.00,WeatherDisplay:10.37,2013-02-22 21:07:00,
2013-02-22 15:12:00,22.6,8.1,28.79,WSW,248,3.1,0.0,53,0.00,CLR,CLR,0.00,WeatherDisplay:10.37,2013-02-22 21:12:00,
2013-02-22 15:17:00,23.2,8.1,28.82,West,270,0.0,0.0,52,0.00,CLR,CLR,0.00,WeatherDisplay:10.37,2013-02-22 21:17:00,
2013-02-22 15:22:00,22.8,8.2,28.82,West,270,0.0,0.0,53,0.00,CLR,CLR,0.00,WeatherDisplay:10.37,2013-02-22 21:22:00,
2013-02-22 15:27:00,23.4,8.7,28.82,SW,225,4.9,0.0,53,0.00,CLR,CLR,0.00,WeatherDisplay:10.37,2013-02-22 21:27:00,
2013-02-22 15:32:00,23.2,8.1,28.79,SW,225,0.0,0.0,52,0.00,CLR,CLR,0.00,WeatherDisplay:10.37,2013-02-22 21:32:00,
2013-02-22 15:37:00,23.5,8.5,28.79,WNW,292,0.0,0.0,52,0.00,CLR,CLR,0.00,WeatherDisplay:10.37,2013-02-22 21:37:00,
2013-02-22 15:42:00,23.5,8.5,28.79,West,270,2.3,0.0,52,0.00,CLR,CLR,0.00,WeatherDisplay:10.37,2013-02-22 21:42:00,
2013-02-22 15:47:00,23.0,8.0,28.79,WNW,292,0.0,0.0,52,0.00,CLR,CLR,0.00,WeatherDisplay:10.37,2013-02-22 21:47:00,
2013-02-22 15:52:00,23.4,8.3,28.79,West,270,0.0,0.0,52,0.00,CLR,CLR,0.00,WeatherDisplay:10.37,2013-02-22 21:52:00,
2013-02-22 15:57:00,23.2,7.7,28.79,WSW,248,4.6,0.0,51,0.00,CLR,CLR,0.00,WeatherDisplay:10.37,2013-02-22 21:57:00,
2013-02-22 16:02:00,23.2,7.7,28.79,WSW,248,0.0,0.0,51,0.00,CLR,CLR,0.00,WeatherDisplay:10.37,2013-02-22 22:02:00,
2013-02-22 16:07:00,23.0,7.5,28.79,West,270,0.0,0.0,51,0.00,CLR,CLR,0.00,WeatherDisplay:10.37,2013-02-22 22:07:00,
2013-02-22 16:12:00,23.4,7.9,28.79,WNW,292,2.3,0.0,51,0.00,CLR,CLR,0.00,WeatherDisplay:10.37,2013-02-22 22:12:00,
2013-02-22 16:17:00,23.4,7.9,28.82,SW,225,0.0,0.0,51,0.00,CLR,CLR,0.00,WeatherDisplay:10.37,2013-02-22 22:17:00,
2013-02-22 16:22:00,22.8,7.4,28.82,West,270,0.0,0.0,51,0.00,CLR,CLR,0.00,WeatherDisplay:10.37,2013-02-22 22:22:00,
2013-02-22 16:27:00,22.5,7.5,28.82,WNW,292,0.0,0.0,52,0.00,CLR,CLR,0.00,WeatherDisplay:10.37,2013-02-22 22:27:00,
2013-02-22 16:32:00,22.5,7.9,28.79,West,270,0.0,0.0,53,0.00,CLR,CLR,0.00,WeatherDisplay:10.37,2013-02-22 22:32:00,
2013-02-22 16:37:00,21.9,7.4,28.79,SW,225,2.6,0.0,53,0.00,CLR,CLR,0.00,WeatherDisplay:10.37,2013-02-22 22:37:00,
2013-02-22 16:42:00,21.9,7.4,28.79,WSW,248,0.0,0.0,53,0.00,CLR,CLR,0.00,WeatherDisplay:10.37,2013-02-22 22:42:00,
2013-02-22 16:47:00,21.7,7.2,28.79,West,270,0.0,0.0,53,0.00,CLR,CLR,0.00,WeatherDisplay:10.37,2013-02-22 22:47:00,
2013-02-22 16:52:00,21.7,7.6,28.79,SW,225,2.2,0.0,54,0.00,CLR,CLR,0.00,WeatherDisplay:10.37,2013-02-22 22:52:00,
2013-02-22 16:57:00,21.9,7.8,28.79,SW,225,0.0,0.0,54,0.00,CLR,CLR,0.00,WeatherDisplay:10.37,2013-02-22 22:57:00,
2013-02-22 17:02:00,21.9,7.8,28.82,SW,225,0.0,0.0,54,0.00,CLR,CLR,0.00,WeatherDisplay:10.37,2013-02-22 23:02:00,
2013-02-22 17:07:00,21.7,8.0,28.82,SW,225,0.0,0.0,55,0.00,CLR,CLR,0.00,WeatherDisplay:10.37,2013-02-22 23:07:00,
2013-02-22 17:12:00,21.4,7.7,28.82,SW,225,3.5,0.0,55,0.00,CLR,CLR,0.00,WeatherDisplay:10.37,2013-02-22 23:12:00,
2013-02-22 17:17:00,21.4,7.7,28.82,SW,225,0.0,0.0,55,0.00,CLR,CLR,0.00,WeatherDisplay:10.37,2013-02-22 23:17:00,
2013-02-22 17:22:00,21.4,8.1,28.82,SW,225,0.0,0.0,56,0.00,CLR,CLR,0.00,WeatherDisplay:10.37,2013-02-22 23:22:00,
2013-02-22 17:27:00,21.4,8.1,28.82,SW,225,0.0,0.0,56,0.00,CLR,CLR,0.00,WeatherDisplay:10.37,2013-02-22 23:27:00,
2013-02-22 17:32:00,21.4,8.1,28.82,WSW,248,0.0,0.0,56,0.00,CLR,CLR,0.00,WeatherDisplay:10.37,2013-02-22 23:32:00,
2013-02-22 17:37:00,21.4,8.1,28.82,WSW,248,0.0,0.0,56,0.00,CLR,CLR,0.00,WeatherDisplay:10.37,2013-02-22 23:37:00,
2013-02-22 17:42:00,21.2,7.9,28.82,SW,225,0.0,0.0,56,0.00,CLR,CLR,0.00,WeatherDisplay:10.37,2013-02-22 23:42:00,
2013-02-22 17:47:00,21.2,8.3,28.79,WNW,292,0.0,0.0,57,0.00,CLR,CLR,0.00,WeatherDisplay:10.37,2013-02-22 23:47:00,
2013-02-22 17:52:00,21.2,8.3,28.79,West,270,0.0,0.0,57,0.00,CLR,CLR,0.00,WeatherDisplay:10.37,2013-02-22 23:52:00,
2013-02-22 17:57:00,21.2,8.7,28.79,SW,225,0.0,0.0,58,0.00,CLR,CLR,0.00,WeatherDisplay:10.37,2013-02-22 23:57:00,
2013-02-22 18:02:00,21.0,8.5,28.82,West,270,0.0,0.0,58,0.00,CLR,CLR,0.00,WeatherDisplay:10.37,2013-02-23 00:02:00,
2013-02-22 18:07:00,21.0,8.5,28.82,WSW,248,0.0,0.0,58,0.00,CLR,CLR,0.00,WeatherDisplay:10.37,2013-02-23 00:07:00,
2013-02-22 18:12:00,20.8,8.4,28.82,West,270,0.0,0.0,58,0.00,CLR,CLR,0.00,WeatherDisplay:10.37,2013-02-23 00:12:00,
2013-02-22 18:17:00,20.7,8.6,28.79,West,270,0.0,0.0,59,0.00,CLR,CLR,0.00,WeatherDisplay:10.37,2013-02-23 00:17:00,
2013-02-22 18:22:00,20.5,8.4,28.79,SW,225,0.0,0.0,59,0.00,CLR,CLR,0.00,WeatherDisplay:10.37,2013-02-23 00:22:00,
2013-02-22 18:27:00,20.3,8.2,28.79,West,270,0.0,0.0,59,0.00,CLR,CLR,0.00,WeatherDisplay:10.37,2013-02-23 00:27:00,
2013-02-22 18:32:00,20.1,8.4,28.82,West,270,0.0,0.0,60,0.00,CLR,CLR,0.00,WeatherDisplay:10.37,2013-02-23 00:32:00,
2013-02-22 18:37:00,20.1,8.4,28.82,SW,225,0.0,0.0,60,0.00,CLR,CLR,0.00,WeatherDisplay:10.37,2013-02-23 00:37:00,
2013-02-22 18:42:00,20.1,8.8,28.82,SW,225,0.0,0.0,61,0.00,CLR,CLR,0.00,WeatherDisplay:10.37,2013-02-23 00:42:00,
2013-02-22 18:47:00,19.9,8.6,28.82,SW,225,0.0,0.0,61,0.00,CLR,CLR,0.00,WeatherDisplay:10.37,2013-02-23 00:47:00,
2013-02-22 18:52:00,19.8,8.5,28.82,SW,225,0.0,0.0,61,0.00,CLR,CLR,0.00,WeatherDisplay:10.37,2013-02-23 00:52:00,
2013-02-22 18:57:00,19.6,8.7,28.82,SW,225,0.0,0.0,62,0.00,CLR,CLR,0.00,WeatherDisplay:10.37,2013-02-23 00:57:00,
2013-02-22 19:02:00,19.6,8.7,28.82,SW,225,0.0,0.0,62,0.00,CLR,CLR,0.00,WeatherDisplay:10.37,2013-02-23 01:02:00,
2013-02-22 19:07:00,19.4,8.8,28.82,SW,225,0.0,0.0,63,0.00,CLR,CLR,0.00,WeatherDisplay:10.37,2013-02-23 01:07:00,
2013-02-22 19:12:00,19.4,8.8,28.82,SW,225,0.0,0.0,63,0.00,CLR,CLR,0.00,WeatherDisplay:10.37,2013-02-23 01:12:00,
2013-02-22 19:17:00,19.4,9.2,28.82,SW,225,0.0,0.0,64,0.00,CLR,CLR,0.00,WeatherDisplay:10.37,2013-02-23 01:17:00,
2013-02-22 19:22:00,19.4,9.2,28.82,SW,225,0.0,0.0,64,0.00,CLR,CLR,0.00,WeatherDisplay:10.37,2013-02-23 01:22:00,
2013-02-22 19:27:00,19.2,9.0,28.82,SW,225,0.0,0.0,64,0.00,CLR,CLR,0.00,WeatherDisplay:10.37,2013-02-23 01:27:00,
2013-02-22 19:32:00,19.2,9.0,28.82,SW,225,0.0,0.0,64,0.00,CLR,CLR,0.00,WeatherDisplay:10.37,2013-02-23 01:32:00,
2013-02-22 19:37:00,19.2,9.4,28.82,SW,225,0.0,0.0,65,0.00,CLR,CLR,0.00,WeatherDisplay:10.37,2013-02-23 01:37:00,
2013-02-22 19:42:00,19.0,9.2,28.82,SW,225,0.0,0.0,65,0.00,CLR,CLR,0.00,WeatherDisplay:10.37,2013-02-23 01:42:00,
2013-02-22 19:47:00,18.9,9.0,28.82,SW,225,0.0,0.0,65,0.00,CLR,CLR,0.00,WeatherDisplay:10.37,2013-02-23 01:47:00,
2013-02-22 19:52:00,18.7,9.2,28.82,SW,225,0.0,0.0,66,0.00,CLR,CLR,0.00,WeatherDisplay:10.37,2013-02-23 01:52:00,
2013-02-22 19:57:00,18.7,9.2,28.82,SW,225,0.0,0.0,66,0.00,CLR,CLR,0.00,WeatherDisplay:10.37,2013-02-23 01:57:00,
2013-02-22 20:02:00,18.5,9.0,28.82,SW,225,0.0,0.0,66,0.00,CLR,CLR,0.00,WeatherDisplay:10.37,2013-02-23 02:02:00,
2013-02-22 20:07:00,18.5,9.4,28.82,SW,225,0.0,0.0,67,0.00,CLR,CLR,0.00,WeatherDisplay:10.37,2013-02-23 02:07:00,
2013-02-22 20:12:00,18.3,9.2,28.82,SW,225,0.0,0.0,67,0.00,CLR,CLR,0.00,WeatherDisplay:10.37,2013-02-23 02:12:00,
2013-02-22 20:17:00,18.3,9.2,28.82,SW,225,0.0,0.0,67,0.00,CLR,CLR,0.00,WeatherDisplay:10.37,2013-02-23 02:17:00,
2013-02-22 20:22:00,18.1,9.3,28.82,SW,225,0.0,0.0,68,0.00,CLR,CLR,0.00,WeatherDisplay:10.37,2013-02-23 02:22:00,
2013-02-22 20:27:00,18.1,9.3,28.82,SW,225,0.0,0.0,68,0.00,CLR,CLR,0.00,WeatherDisplay:10.37,2013-02-23 02:27:00,
2013-02-22 20:32:00,18.0,9.5,28.82,SW,225,0.0,0.0,69,0.00,CLR,CLR,0.00,WeatherDisplay:10.37,2013-02-23 02:32:00,
2013-02-22 20:37:00,17.8,9.3,28.82,SW,225,0.0,0.0,69,0.00,CLR,CLR,0.00,WeatherDisplay:10.37,2013-02-23 02:37:00,
2013-02-22 20:42:00,17.8,9.3,28.82,SW,225,0.0,0.0,69,0.00,CLR,CLR,0.00,WeatherDisplay:10.37,2013-02-23 02:42:00,
2013-02-22 20:47:00,17.8,9.3,28.82,SW,225,0.0,0.0,69,0.00,CLR,CLR,0.00,WeatherDisplay:10.37,2013-02-23 02:47:00,
2013-02-22 20:52:00,17.8,9.6,28.82,SW,225,0.0,0.0,70,0.00,CLR,CLR,0.00,WeatherDisplay:10.37,2013-02-23 02:52:00,
2013-02-22 20:57:00,17.6,9.5,28.82,SW,225,0.0,0.0,70,0.00,CLR,CLR,0.00,WeatherDisplay:10.37,2013-02-23 02:57:00,
2013-02-22 21:02:00,17.6,9.8,28.82,SW,225,0.0,0.0,71,0.00,CLR,CLR,0.00,WeatherDisplay:10.37,2013-02-23 03:02:00,
2013-02-22 21:07:00,17.4,9.6,28.82,SW,225,0.0,0.0,71,0.00,CLR,CLR,0.00,WeatherDisplay:10.37,2013-02-23 03:07:00,
2013-02-22 21:12:00,17.1,9.3,28.82,SW,225,0.0,0.0,71,0.00,CLR,CLR,0.00,WeatherDisplay:10.37,2013-02-23 03:12:00,
2013-02-22 21:17:00,17.1,9.3,28.82,SW,225,0.0,0.0,71,0.00,CLR,CLR,0.00,WeatherDisplay:10.37,2013-02-23 03:17:00,
2013-02-22 21:22:00,17.2,9.8,28.82,SW,225,0.0,0.0,72,0.00,CLR,CLR,0.00,WeatherDisplay:10.37,2013-02-23 03:22:00,
2013-02-22 21:27:00,17.1,9.6,28.82,SW,225,0.0,0.0,72,0.00,CLR,CLR,0.00,WeatherDisplay:10.37,2013-02-23 03:27:00,
2013-02-22 21:32:00,16.9,9.4,28.82,SW,225,0.0,0.0,72,0.00,CLR,CLR,0.00,WeatherDisplay:10.37,2013-02-23 03:32:00,
2013-02-22 21:37:00,16.7,9.2,28.82,SW,225,0.0,0.0,72,0.00,CLR,CLR,0.00,WeatherDisplay:10.37,2013-02-23 03:37:00,
2013-02-22 21:42:00,16.5,9.4,28.82,SW,225,0.0,0.0,73,0.00,CLR,CLR,0.00,WeatherDisplay:10.37,2013-02-23 03:42:00,
2013-02-22 21:47:00,16.5,9.4,28.82,SW,225,0.0,0.0,73,0.00,CLR,CLR,0.00,WeatherDisplay:10.37,2013-02-23 03:47:00,
2013-02-22 21:52:00,16.7,9.5,28.82,SW,225,0.0,0.0,73,0.00,CLR,CLR,0.00,WeatherDisplay:10.37,2013-02-23 03:52:00,
2013-02-22 21:57:00,16.7,9.8,28.82,SW,225,0.0,0.0,74,0.00,CLR,CLR,0.00,WeatherDisplay:10.37,2013-02-23 03:57:00,
2013-02-22 22:02:00,16.7,9.8,28.82,SW,225,0.0,0.0,74,0.00,CLR,CLR,0.00,WeatherDisplay:10.37,2013-02-23 04:02:00,
2013-02-22 22:07:00,16.7,9.8,28.82,SW,225,0.0,0.0,74,0.00,CLR,CLR,0.00,WeatherDisplay:10.37,2013-02-23 04:07:00,
2013-02-22 22:12:00,16.3,9.5,28.82,SW,225,0.0,0.0,74,0.00,CLR,CLR,0.00,WeatherDisplay:10.37,2013-02-23 04:12:00,
2013-02-22 22:17:00,16.2,9.6,28.82,SW,225,0.0,0.0,75,0.00,CLR,CLR,0.00,WeatherDisplay:10.37,2013-02-23 04:17:00,
2013-02-22 22:22:00,16.2,9.6,28.82,SW,225,0.0,0.0,75,0.00,CLR,CLR,0.00,WeatherDisplay:10.37,2013-02-23 04:22:00,
2013-02-22 22:25:00,16.2,9.6,28.82,SW,225,0.0,0.0,75,0.00,CLR,CLR,0.00,WeatherDisplay:10.37,2013-02-23 04:25:00,
2013-02-22 22:27:00,16.2,9.6,28.82,SW,225,0.0,0.0,75,0.00,CLR,CLR,0.00,WeatherDisplay:10.37,2013-02-23 04:27:00,
2013-02-22 22:32:00,16.2,9.6,28.82,SW,225,0.0,0.0,75,0.00,CLR,CLR,0.00,WeatherDisplay:10.37,2013-02-23 04:32:00,